North Bethesda, Maryland
Current Conditions -  °F | °C
As of 10:05 AM on Wednesday 26 Nov 2014 (Local Time) from KCGS Reporting Station
Overcast Overcast  
Wind Chill: 33°   Ceiling: 1100
Heat Index: 37°   Visibility: 4mi
Dew Point: 37°   Wind: 6mph
Humidity: 100%   Direction: 10°N
Pressure: 30.05"   Gusts: NA
Location:  39.0255°N, 77.0746°W
Report Text: KCGS 261505Z AUTO 01005KT 4SM OVC011 03/03 A3005 RMK AO1
Loading
Personal Weather Stations






























Interactive Weather Map New forecast layout! Learn more

10-Day Weather Forecast

Advertisements
Track Severe Weather on mobile